Time;durP1;ratioP1;P1;durP2;ratioP2;P2;SDS_P1;SDS_P2;PMS_P1;PMS_P2;Temp;Humidity;BMP_temperature;BMP_pressure;BME280_temperature;BME280_humidity;BME280_pressure;Samples;Min_cycle;Max_cycle;Signal;HPM_P1;HPM_P2
2023/07/27 00:00:12;;;;;;;1.75;1.65;;;21.10;63.50;;;;;;4994690;28;20198;-69
2023/07/27 00:02:38;;;;;;;2.08;1.88;;;21.10;63.60;;;;;;5012402;28;20208;-69
2023/07/27 00:05:04;;;;;;;2.03;1.92;;;21.10;63.60;;;;;;4994559;28;20215;-69
2023/07/27 00:07:30;;;;;;;1.90;1.80;;;21.10;63.60;;;;;;4993123;28;20603;-69
2023/07/27 00:09:56;;;;;;;1.60;1.50;;;21.10;63.60;;;;;;4986603;28;20176;-69
2023/07/27 00:12:22;;;;;;;1.90;1.80;;;21.10;63.60;;;;;;5007701;28;20575;-69
2023/07/27 00:14:49;;;;;;;1.67;1.58;;;21.10;63.60;;;;;;5012300;28;20263;-71
2023/07/27 00:17:15;;;;;;;1.92;1.83;;;21.10;63.50;;;;;;5018408;28;20208;-69
2023/07/27 00:19:41;;;;;;;1.98;1.88;;;21.10;63.60;;;;;;5003302;28;20220;-69
2023/07/27 00:22:06;;;;;;;2.22;2.03;;;21.10;63.60;;;;;;4998412;28;20190;-69
2023/07/27 00:24:33;;;;;;;1.63;1.52;;;21.10;63.60;;;;;;4988878;28;20290;-70
2023/07/27 00:26:58;;;;;;;1.70;1.60;;;21.10;63.60;;;;;;5008712;28;20223;-69
2023/07/27 00:29:24;;;;;;;2.20;2.00;;;21.10;63.60;;;;;;5002814;28;20180;-69
2023/07/27 00:31:50;;;;;;;1.55;1.45;;;21.10;63.60;;;;;;4985780;28;20192;-69
2023/07/27 00:34:17;;;;;;;1.63;1.52;;;21.10;63.60;;;;;;5007498;28;20192;-69
2023/07/27 00:36:43;;;;;;;1.40;1.30;;;21.10;63.60;;;;;;5005071;28;20282;-69
2023/07/27 00:39:11;;;;;;;1.75;1.65;;;21.10;63.60;;;;;;5030091;28;20191;-69
2023/07/27 00:41:41;;;;;;;2.10;1.90;;;21.10;63.60;;;;;;5000440;28;20187;-69
2023/07/27 00:44:07;;;;;;;1.90;1.80;;;21.10;63.60;;;;;;5005348;28;20187;-69
2023/07/27 00:46:36;;;;;;;2.00;1.90;;;21.10;63.60;;;;;;5024801;28;20218;-69
2023/07/27 00:49:04;;;;;;;1.85;1.75;;;21.10;63.60;;;;;;5015851;28;20673;-70
2023/07/27 00:51:36;;;;;;;1.65;1.55;;;21.10;63.60;;;;;;4984928;28;20185;-69
2023/07/27 00:54:04;;;;;;;1.67;1.58;;;21.10;63.60;;;;;;4996316;28;20219;-69
2023/07/27 00:56:32;;;;;;;1.35;1.25;;;21.10;63.70;;;;;;4993887;28;20176;-69
2023/07/27 00:59:00;;;;;;;1.73;1.63;;;21.10;63.70;;;;;;5011021;28;20200;-70
2023/07/27 01:01:26;;;;;;;1.92;1.73;;;21.10;63.70;;;;;;5020663;28;20216;-69
2023/07/27 01:03:53;;;;;;;2.38;1.40;;;21.10;63.70;;;;;;4973716;28;20192;-69
2023/07/27 01:06:21;;;;;;;1.70;1.60;;;21.10;63.70;;;;;;5013970;28;20212;-69
2023/07/27 01:08:48;;;;;;;1.60;1.50;;;21.10;63.70;;;;;;5006040;28;20187;-69
2023/07/27 01:11:48;;;;;;;1.70;1.60;;;21.10;63.70;;;;;;4989914;28;20180;-70
2023/07/27 01:14:34;;;;;;;1.48;1.38;;;21.10;63.70;;;;;;5012828;28;20200;-70
2023/07/27 01:17:23;;;;;;;2.20;2.00;;;21.10;63.70;;;;;;4999485;28;20196;-69
2023/07/27 01:20:38;;;;;;;1.50;1.40;;;21.10;63.70;;;;;;4989845;28;20660;-70
2023/07/27 01:23:45;;;;;;;2.25;1.73;;;21.10;63.70;;;;;;4993430;28;20200;-69
2023/07/27 01:26:38;;;;;;;1.70;1.60;;;21.10;63.80;;;;;;4999368;28;20218;-69
2023/07/27 01:29:54;;;;;;;1.75;1.65;;;21.10;63.70;;;;;;5022065;28;20179;-71
2023/07/27 01:32:23;;;;;;;1.83;1.73;;;21.10;63.70;;;;;;4979348;28;20272;-69
2023/07/27 01:34:57;;;;;;;2.05;1.67;;;21.10;63.80;;;;;;5017654;28;20228;-70
2023/07/27 01:37:29;;;;;;;1.55;1.45;;;21.10;63.80;;;;;;5013629;28;20195;-69
2023/07/27 01:39:59;;;;;;;1.60;1.30;;;21.10;63.80;;;;;;5013697;28;20203;-69
2023/07/27 01:42:28;;;;;;;1.38;1.30;;;21.10;63.70;;;;;;5011113;28;20188;-69
2023/07/27 01:44:56;;;;;;;1.85;1.73;;;21.10;63.70;;;;;;4990250;28;20216;-69
2023/07/27 01:47:24;;;;;;;1.60;1.50;;;21.10;63.80;;;;;;4977582;28;20201;-70
2023/07/27 01:49:51;;;;;;;2.10;1.88;;;21.10;63.70;;;;;;5017177;28;20196;-69
2023/07/27 01:52:20;;;;;;;1.50;1.40;;;21.10;63.80;;;;;;4999669;28;20199;-70
2023/07/27 01:54:49;;;;;;;1.58;1.48;;;21.10;63.80;;;;;;5017911;28;20208;-70
2023/07/27 01:57:17;;;;;;;1.60;1.45;;;21.10;63.80;;;;;;4978184;28;20203;-69
2023/07/27 01:59:44;;;;;;;1.80;1.70;;;21.10;63.80;;;;;;4991239;28;20207;-69
2023/07/27 02:02:13;;;;;;;1.98;1.88;;;21.10;63.80;;;;;;5008702;28;20194;-69
2023/07/27 02:04:39;;;;;;;1.88;1.60;;;21.10;63.70;;;;;;5002418;28;20203;-69
2023/07/27 02:07:05;;;;;;;2.00;1.90;;;21.10;63.80;;;;;;5006706;28;20216;-69
2023/07/27 02:09:31;;;;;;;1.83;1.73;;;21.10;63.80;;;;;;4991874;28;20196;-69
2023/07/27 02:12:09;;;;;;;1.70;1.60;;;21.10;63.80;;;;;;5001577;28;20243;-69
2023/07/27 02:14:57;;;;;;;1.45;1.35;;;21.00;63.60;;;;;;5019534;28;20199;-69
2023/07/27 02:17:34;;;;;;;1.70;1.60;;;21.10;63.80;;;;;;5026501;28;20279;-70
2023/07/27 02:20:05;;;;;;;1.85;1.75;;;21.00;63.60;;;;;;4993628;28;20279;-69
2023/07/27 02:22:31;;;;;;;1.70;1.60;;;21.00;63.70;;;;;;4972490;28;20192;-69
2023/07/27 02:24:57;;;;;;;1.63;1.52;;;21.00;63.60;;;;;;4980048;28;20208;-70
2023/07/27 02:27:22;;;;;;;1.90;1.80;;;21.00;63.60;;;;;;5028987;28;20216;-71
2023/07/27 02:29:49;;;;;;;1.77;1.67;;;21.00;63.60;;;;;;4981891;28;20671;-69
2023/07/27 02:32:14;;;;;;;1.40;1.30;;;21.00;63.60;;;;;;5009433;28;20188;-69
2023/07/27 02:34:40;;;;;;;1.70;1.60;;;21.00;63.60;;;;;;5012507;28;20207;-69
2023/07/27 02:37:08;;;;;;;1.70;1.58;;;21.00;63.60;;;;;;4995249;28;20671;-69
2023/07/27 02:39:34;;;;;;;1.50;1.40;;;21.00;63.60;;;;;;5013489;28;20199;-69
2023/07/27 02:42:00;;;;;;;1.50;1.40;;;21.00;63.70;;;;;;4996542;28;20204;-70
2023/07/27 02:44:25;;;;;;;1.90;1.80;;;21.00;63.60;;;;;;4996047;28;20204;-69
2023/07/27 02:46:51;;;;;;;1.67;1.58;;;21.00;63.70;;;;;;4996204;28;20592;-69
2023/07/27 02:49:17;;;;;;;1.63;1.52;;;21.00;63.60;;;;;;4978242;28;20212;-69
2023/07/27 02:51:43;;;;;;;1.45;1.35;;;21.00;63.60;;;;;;4992837;28;20188;-69
2023/07/27 02:54:09;;;;;;;1.60;1.50;;;21.00;63.60;;;;;;5015393;28;20196;-70
2023/07/27 02:56:35;;;;;;;1.85;1.75;;;21.00;63.60;;;;;;4983685;28;20203;-69
2023/07/27 02:59:02;;;;;;;1.70;1.52;;;21.00;63.60;;;;;;4992204;28;20191;-69
2023/07/27 03:01:29;;;;;;;1.50;1.40;;;21.00;63.60;;;;;;5010497;28;20278;-69
2023/07/27 03:04:02;;;;;;;1.40;1.30;;;21.00;63.70;;;;;;4988171;28;20188;-68
2023/07/27 03:06:28;;;;;;;1.30;1.23;;;21.00;63.60;;;;;;5014872;28;20207;-70
2023/07/27 03:08:57;;;;;;;1.65;1.55;;;21.00;63.60;;;;;;5031045;28;20225;-69
2023/07/27 03:11:23;;;;;;;1.70;1.60;;;21.00;63.70;;;;;;5028973;28;20179;-69
2023/07/27 03:13:50;;;;;;;1.60;1.50;;;21.00;63.70;;;;;;5003616;28;20238;-69
2023/07/27 03:16:15;;;;;;;1.60;1.50;;;21.00;63.60;;;;;;5000206;28;20215;-69
2023/07/27 03:18:41;;;;;;;1.50;1.40;;;21.00;63.70;;;;;;4995593;28;20184;-69
2023/07/27 03:21:08;;;;;;;1.55;1.45;;;21.00;63.70;;;;;;4995592;28;20234;-69
2023/07/27 03:23:34;;;;;;;1.92;1.70;;;21.00;63.70;;;;;;4987357;28;20192;-69
2023/07/27 03:25:59;;;;;;;1.80;1.70;;;21.00;63.70;;;;;;4979542;28;20207;-69
2023/07/27 03:28:25;;;;;;;1.55;1.45;;;21.00;63.70;;;;;;4992162;28;20288;-69
2023/07/27 03:30:51;;;;;;;1.63;1.52;;;21.00;63.70;;;;;;4989829;28;20330;-69
2023/07/27 03:33:17;;;;;;;1.98;1.55;;;21.00;63.70;;;;;;4984887;28;20679;-69
2023/07/27 03:35:43;;;;;;;1.95;1.58;;;21.00;63.70;;;;;;5008307;28;20219;-69
2023/07/27 03:38:08;;;;;;;1.80;1.70;;;21.00;63.80;;;;;;5007839;28;20231;-69
2023/07/27 03:40:34;;;;;;;1.58;1.48;;;21.00;63.80;;;;;;5000153;28;20197;-69
2023/07/27 03:43:00;;;;;;;1.80;1.70;;;21.00;63.80;;;;;;4990392;28;20184;-69
2023/07/27 03:45:26;;;;;;;1.58;1.48;;;21.00;63.80;;;;;;5008557;28;20215;-71
2023/07/27 03:47:52;;;;;;;1.38;1.27;;;21.00;63.70;;;;;;5005257;28;20625;-70
2023/07/27 03:50:19;;;;;;;1.70;1.60;;;21.00;63.80;;;;;;5009169;28;20185;-69
2023/07/27 03:52:45;;;;;;;1.63;1.52;;;21.00;63.80;;;;;;4990149;28;20560;-69
2023/07/27 03:55:12;;;;;;;1.80;1.70;;;21.00;63.80;;;;;;4989163;28;20296;-69
2023/07/27 03:57:39;;;;;;;1.42;1.33;;;21.00;63.80;;;;;;4971406;28;20192;-69
2023/07/27 04:00:06;;;;;;;1.70;1.60;;;21.00;63.80;;;;;;5011447;28;20192;-70
2023/07/27 04:02:39;;;;;;;1.77;1.67;;;21.00;63.80;;;;;;5003423;28;20191;-70
2023/07/27 04:05:05;;;;;;;1.85;1.50;;;21.00;63.80;;;;;;4963023;28;20212;-69
2023/07/27 04:07:31;;;;;;;1.60;1.50;;;21.00;63.80;;;;;;5009724;28;20299;-69
2023/07/27 04:09:58;;;;;;;1.60;1.50;;;21.00;63.80;;;;;;5011162;28;20188;-69
2023/07/27 04:12:24;;;;;;;1.45;1.35;;;20.90;63.70;;;;;;5009375;28;20193;-69
2023/07/27 04:14:49;;;;;;;1.67;1.58;;;21.00;63.80;;;;;;5007360;28;20210;-69
2023/07/27 04:17:15;;;;;;;1.60;1.50;;;21.00;63.80;;;;;;5007213;28;20192;-70
2023/07/27 04:19:41;;;;;;;1.52;1.42;;;20.90;63.70;;;;;;5003565;28;20243;-70
2023/07/27 04:22:06;;;;;;;1.60;1.50;;;21.00;63.90;;;;;;4998567;28;20193;-70
2023/07/27 04:24:32;;;;;;;1.95;1.77;;;21.00;63.90;;;;;;5007519;28;20211;-71
2023/07/27 04:26:58;;;;;;;1.52;1.42;;;21.00;63.90;;;;;;4979785;28;20217;-69
2023/07/27 04:29:24;;;;;;;1.30;1.20;;;21.00;63.90;;;;;;4976213;28;20199;-70
2023/07/27 04:31:49;;;;;;;1.70;1.60;;;21.00;63.90;;;;;;4978195;28;20195;-69
2023/07/27 04:34:15;;;;;;;1.65;1.50;;;21.00;63.90;;;;;;5010379;28;20187;-71
2023/07/27 04:36:41;;;;;;;1.63;1.35;;;21.00;64.00;;;;;;4982649;28;20185;-69
2023/07/27 04:39:07;;;;;;;1.08;1.08;;;21.00;63.90;;;;;;4992055;28;20196;-69
2023/07/27 04:41:32;;;;;;;1.50;1.40;;;20.90;63.90;;;;;;4993368;28;20289;-69
2023/07/27 04:43:58;;;;;;;2.03;1.67;;;21.00;64.70;;;;;;5004434;28;20204;-69
2023/07/27 04:46:24;;;;;;;1.50;1.40;;;21.00;63.90;;;;;;5008127;28;20215;-70
2023/07/27 04:48:50;;;;;;;1.60;1.50;;;20.90;63.80;;;;;;5016929;28;20188;-69
2023/07/27 04:51:15;;;;;;;1.42;1.33;;;21.00;63.90;;;;;;5010541;28;20184;-69
2023/07/27 04:53:41;;;;;;;1.50;1.40;;;21.00;63.90;;;;;;4986189;28;20176;-69
2023/07/27 04:56:07;;;;;;;1.30;1.25;;;21.00;63.90;;;;;;4994418;28;20204;-69
2023/07/27 04:58:32;;;;;;;1.60;1.50;;;20.90;63.80;;;;;;5010253;28;20192;-69
2023/07/27 05:00:59;;;;;;;1.60;1.50;;;21.00;63.90;;;;;;4994043;28;20226;-69
2023/07/27 05:03:25;;;;;;;1.55;1.45;;;21.00;63.90;;;;;;5009018;28;20196;-70
2023/07/27 05:05:53;;;;;;;1.73;1.30;;;20.90;63.80;;;;;;4987255;28;20211;-69
2023/07/27 05:08:18;;;;;;;1.70;1.60;;;20.90;63.90;;;;;;4985201;28;20220;-69
2023/07/27 05:10:44;;;;;;;1.60;1.50;;;20.90;63.80;;;;;;4982307;28;20656;-69
2023/07/27 05:13:10;;;;;;;1.63;1.52;;;21.00;64.00;;;;;;4986633;28;20244;-70
2023/07/27 05:15:40;;;;;;;1.60;1.50;;;21.00;63.90;;;;;;5008100;28;20205;-69
2023/07/27 05:18:06;;;;;;;1.55;1.45;;;20.90;63.90;;;;;;4969635;28;20183;-69
2023/07/27 05:20:35;;;;;;;1.98;1.88;;;20.90;63.90;;;;;;5008071;28;20647;-70
2023/07/27 05:23:01;;;;;;;1.60;1.50;;;20.90;63.90;;;;;;5010887;28;20189;-69
2023/07/27 05:25:26;;;;;;;1.58;1.48;;;20.90;63.90;;;;;;5009890;28;20239;-70
2023/07/27 05:27:52;;;;;;;1.63;1.52;;;21.00;64.00;;;;;;4992554;28;20301;-70
2023/07/27 05:30:18;;;;;;;1.50;1.40;;;21.00;64.00;;;;;;5010081;28;20223;-70
2023/07/27 05:32:44;;;;;;;1.45;1.35;;;21.00;64.00;;;;;;4991773;28;20293;-69
2023/07/27 05:35:09;;;;;;;2.35;1.50;;;20.90;63.90;;;;;;5005728;28;20213;-69
2023/07/27 05:37:35;;;;;;;1.50;1.40;;;20.90;63.90;;;;;;4995742;28;20196;-70
2023/07/27 05:40:01;;;;;;;1.58;1.48;;;20.90;63.90;;;;;;4991655;28;20196;-70
2023/07/27 05:42:26;;;;;;;1.58;1.48;;;20.90;63.90;;;;;;5011064;28;20195;-69
2023/07/27 05:44:52;;;;;;;1.60;1.50;;;20.90;63.90;;;;;;4989198;28;20220;-69
2023/07/27 05:47:18;;;;;;;1.50;1.40;;;20.90;63.90;;;;;;4989055;28;20247;-70
2023/07/27 05:49:44;;;;;;;1.67;1.58;;;20.90;63.90;;;;;;4997095;28;20231;-69
2023/07/27 05:52:10;;;;;;;1.70;1.60;;;20.90;64.00;;;;;;4989258;28;20188;-69
2023/07/27 05:54:35;;;;;;;1.67;1.58;;;20.90;64.00;;;;;;4980379;28;20211;-69
2023/07/27 05:57:01;;;;;;;1.52;1.42;;;20.90;64.00;;;;;;5013446;28;20196;-69
2023/07/27 05:59:27;;;;;;;1.52;1.42;;;20.90;64.30;;;;;;4996765;28;20187;-69
2023/07/27 06:01:53;;;;;;;1.73;1.63;;;20.90;64.00;;;;;;5013191;28;20570;-69
2023/07/27 06:04:19;;;;;;;1.48;1.38;;;20.90;64.00;;;;;;5013123;28;20203;-70
2023/07/27 06:06:46;;;;;;;1.73;1.60;;;20.90;64.00;;;;;;4996750;28;20235;-69
2023/07/27 06:09:12;;;;;;;1.70;1.40;;;20.90;64.00;;;;;;4996824;28;20196;-71
2023/07/27 06:11:38;;;;;;;1.70;1.60;;;20.90;64.00;;;;;;4996897;28;20196;-70
2023/07/27 06:14:04;;;;;;;1.50;1.40;;;20.90;64.00;;;;;;4988646;28;20191;-69
2023/07/27 06:16:30;;;;;;;1.55;1.45;;;20.90;64.00;;;;;;4994235;28;20196;-69
2023/07/27 06:18:56;;;;;;;2.28;1.80;;;20.90;64.00;;;;;;4996729;28;20199;-70
2023/07/27 06:21:21;;;;;;;1.70;1.60;;;20.90;64.00;;;;;;5008171;28;20198;-69
2023/07/27 06:23:47;;;;;;;1.73;1.63;;;20.90;64.00;;;;;;5004761;28;20548;-70
2023/07/27 06:26:13;;;;;;;1.38;1.27;;;20.90;64.00;;;;;;5007577;28;20213;-69
2023/07/27 06:28:39;;;;;;;1.55;1.45;;;20.90;63.90;;;;;;5003302;28;20229;-69
2023/07/27 06:31:04;;;;;;;1.70;1.60;;;20.90;63.90;;;;;;4988311;28;20553;-69
2023/07/27 06:33:30;;;;;;;1.48;1.38;;;20.90;63.90;;;;;;5002678;28;20183;-69
2023/07/27 06:35:57;;;;;;;1.88;1.50;;;20.90;63.90;;;;;;5009482;28;20223;-70
2023/07/27 06:38:23;;;;;;;1.67;1.58;;;20.90;63.90;;;;;;5016737;28;20221;-69
2023/07/27 06:40:48;;;;;;;1.70;1.60;;;20.90;63.90;;;;;;4996451;28;20180;-69
2023/07/27 06:43:14;;;;;;;1.80;1.70;;;20.90;64.00;;;;;;5012008;28;20192;-69
2023/07/27 06:45:40;;;;;;;1.85;1.38;;;20.90;64.00;;;;;;5012061;28;20227;-69
2023/07/27 06:48:06;;;;;;;1.38;1.27;;;20.90;64.00;;;;;;4992704;28;20268;-70
2023/07/27 06:50:31;;;;;;;1.73;1.63;;;20.90;64.00;;;;;;5009857;28;20196;-69
2023/07/27 06:52:57;;;;;;;1.40;1.30;;;20.90;64.00;;;;;;4991449;28;20180;-69
2023/07/27 06:55:23;;;;;;;1.70;1.50;;;20.90;64.00;;;;;;4992931;28;20233;-69
2023/07/27 06:57:49;;;;;;;1.83;1.65;;;20.90;64.10;;;;;;4979227;28;20184;-69
2023/07/27 07:00:15;;;;;;;1.58;1.48;;;20.90;64.00;;;;;;5012834;28;20650;-69
2023/07/27 07:02:40;;;;;;;1.98;1.83;;;20.90;64.00;;;;;;4995510;28;20227;-69
2023/07/27 07:05:07;;;;;;;1.50;1.40;;;20.90;64.00;;;;;;4995778;28;20208;-69
2023/07/27 07:07:33;;;;;;;1.35;1.25;;;20.90;64.10;;;;;;5011743;28;20231;-69
2023/07/27 07:09:59;;;;;;;1.60;1.50;;;20.90;64.10;;;;;;4996236;28;20184;-69
2023/07/27 07:12:24;;;;;;;1.75;1.65;;;20.90;64.20;;;;;;5012175;28;20176;-69
2023/07/27 07:14:50;;;;;;;1.67;1.58;;;20.90;64.10;;;;;;5011996;28;20762;-69
2023/07/27 07:17:16;;;;;;;1.85;1.70;;;20.90;64.10;;;;;;4976835;28;20188;-70
2023/07/27 07:19:42;;;;;;;1.70;1.60;;;20.90;64.10;;;;;;5004906;28;20187;-70
2023/07/27 07:22:08;;;;;;;1.73;1.63;;;20.90;64.10;;;;;;4995318;28;20196;-69
2023/07/27 07:24:34;;;;;;;1.48;1.38;;;20.90;64.10;;;;;;5011692;28;20215;-69
2023/07/27 07:26:59;;;;;;;1.60;1.50;;;20.90;64.20;;;;;;4995500;28;20220;-70
2023/07/27 07:29:26;;;;;;;2.45;1.83;;;20.90;64.20;;;;;;4979249;28;20199;-69
2023/07/27 07:31:52;;;;;;;2.83;1.83;;;20.90;64.20;;;;;;4998256;28;20192;-70
2023/07/27 07:34:18;;;;;;;1.60;1.50;;;20.90;64.20;;;;;;5016449;28;20188;-69
2023/07/27 07:36:44;;;;;;;1.50;1.40;;;20.90;64.20;;;;;;4987437;28;20203;-70
2023/07/27 07:39:10;;;;;;;1.70;1.60;;;20.90;64.20;;;;;;5011347;28;20254;-70
2023/07/27 07:41:35;;;;;;;1.50;1.40;;;20.90;64.20;;;;;;5012552;28;20643;-70
2023/07/27 07:44:01;;;;;;;1.80;1.70;;;20.90;64.20;;;;;;4990356;28;20196;-69
2023/07/27 07:46:27;;;;;;;1.60;1.50;;;20.80;64.00;;;;;;4975522;28;20193;-69
2023/07/27 07:48:52;;;;;;;1.70;1.60;;;20.90;64.20;;;;;;5009878;28;20721;-71
2023/07/27 07:51:18;;;;;;;1.60;1.50;;;20.90;64.10;;;;;;5011343;28;20195;-70
2023/07/27 07:53:44;;;;;;;1.65;1.55;;;21.00;64.10;;;;;;4994518;28;20625;-69
2023/07/27 07:56:15;;;;;;;1.65;1.55;;;21.00;64.00;;;;;;5012241;28;20218;-69
2023/07/27 07:58:42;;;;;;;1.50;1.40;;;21.00;64.00;;;;;;4978477;28;20192;-70
2023/07/27 08:01:08;;;;;;;1.60;1.50;;;21.00;63.90;;;;;;4990912;28;20187;-69
2023/07/27 08:03:34;;;;;;;1.92;1.83;;;21.00;63.90;;;;;;5007379;28;20188;-69
2023/07/27 08:06:00;;;;;;;1.70;1.60;;;21.00;63.90;;;;;;5007728;28;20207;-70
2023/07/27 08:08:25;;;;;;;1.65;1.55;;;21.00;63.90;;;;;;4970121;28;20222;-69
2023/07/27 08:10:52;;;;;;;1.98;1.80;;;21.00;63.90;;;;;;5010029;28;20242;-70
2023/07/27 08:13:17;;;;;;;1.70;1.60;;;21.00;63.80;;;;;;4991507;28;20188;-69
2023/07/27 08:15:53;;;;;;;1.60;1.50;;;21.10;63.90;;;;;;5011655;28;20234;-70
2023/07/27 08:18:19;;;;;;;1.70;1.60;;;21.00;63.80;;;;;;5011148;28;20577;-70
2023/07/27 08:20:56;;;;;;;1.73;1.40;;;21.10;63.80;;;;;;5000403;28;20280;-71
2023/07/27 08:23:22;;;;;;;1.63;1.52;;;21.00;63.70;;;;;;4994477;28;20188;-70
2023/07/27 08:25:48;;;;;;;1.70;1.60;;;21.10;63.90;;;;;;4972101;28;20210;-70
2023/07/27 08:28:14;;;;;;;1.70;1.60;;;21.10;63.80;;;;;;5006837;28;20212;-70
2023/07/27 08:30:41;;;;;;;2.00;1.80;;;21.10;63.80;;;;;;4994530;28;20191;-70
2023/07/27 08:33:08;;;;;;;1.65;1.55;;;21.10;63.80;;;;;;5017100;28;20235;-70
2023/07/27 08:35:33;;;;;;;1.80;1.70;;;21.10;63.80;;;;;;5007698;28;20222;-70
2023/07/27 08:37:59;;;;;;;1.80;1.70;;;21.10;63.80;;;;;;4993641;28;20188;-71
2023/07/27 08:40:25;;;;;;;2.72;1.90;;;21.10;63.80;;;;;;5017294;28;20249;-70
2023/07/27 08:42:51;;;;;;;1.60;1.50;;;21.10;63.80;;;;;;5019869;28;20271;-70
2023/07/27 08:45:21;;;;;;;1.90;1.80;;;21.10;63.90;;;;;;5004725;28;20215;-71
2023/07/27 08:47:53;;;;;;;1.50;1.40;;;21.10;63.80;;;;;;5021077;28;20212;-71
2023/07/27 08:50:19;;;;;;;1.85;1.75;;;21.10;64.00;;;;;;5006824;28;20201;-71
2023/07/27 08:52:46;;;;;;;1.67;1.58;;;21.10;63.90;;;;;;5009288;28;20215;-70
2023/07/27 08:55:12;;;;;;;2.08;1.88;;;21.10;63.80;;;;;;5011553;28;20207;-70
2023/07/27 08:57:39;;;;;;;1.73;1.63;;;21.10;64.00;;;;;;5002191;28;20217;-70
2023/07/27 09:00:05;;;;;;;1.95;1.60;;;21.10;64.00;;;;;;4996485;28;20185;-70
2023/07/27 09:02:31;;;;;;;1.80;1.70;;;21.10;64.00;;;;;;4992943;28;20234;-70
2023/07/27 09:04:57;;;;;;;1.80;1.70;;;21.10;63.90;;;;;;5018510;28;20208;-70
2023/07/27 09:07:23;;;;;;;1.50;1.40;;;21.10;63.80;;;;;;5011409;28;20211;-70
2023/07/27 09:09:53;;;;;;;1.70;1.60;;;21.10;63.90;;;;;;4980980;28;20671;-70
2023/07/27 09:12:22;;;;;;;1.90;1.75;;;21.10;63.90;;;;;;4998161;28;20269;-70
2023/07/27 09:14:48;;;;;;;1.65;1.55;;;21.10;64.00;;;;;;5005864;28;20208;-70
2023/07/27 09:17:14;;;;;;;1.83;1.73;;;21.10;63.80;;;;;;5014212;28;20188;-70
2023/07/27 09:19:43;;;;;;;1.58;1.48;;;21.10;63.80;;;;;;4973956;28;20192;-70
2023/07/27 09:22:11;;;;;;;2.40;1.60;;;21.10;63.90;;;;;;5018475;28;20199;-70
2023/07/27 09:24:39;;;;;;;1.27;1.20;;;21.10;63.90;;;;;;5011277;28;20220;-70
2023/07/27 09:27:13;;;;;;;1.60;1.50;;;21.10;63.90;;;;;;5006470;28;20299;-70
2023/07/27 09:29:41;;;;;;;2.30;1.90;;;21.10;63.90;;;;;;4997800;28;20191;-70
2023/07/27 09:32:09;;;;;;;1.63;1.52;;;21.10;64.00;;;;;;5008052;28;20263;-70
2023/07/27 09:34:35;;;;;;;1.77;1.67;;;21.10;63.80;;;;;;5020882;28;20345;-70
2023/07/27 09:37:03;;;;;;;1.92;1.80;;;21.20;64.00;;;;;;5006578;28;20286;-70
2023/07/27 09:39:33;;;;;;;1.70;1.60;;;21.20;63.90;;;;;;4994306;28;20181;-70
2023/07/27 09:41:59;;;;;;;1.60;1.50;;;21.20;63.90;;;;;;5012430;28;20195;-70
2023/07/27 09:44:24;;;;;;;1.80;1.70;;;21.20;64.00;;;;;;5013418;28;20230;-69
2023/07/27 09:46:50;;;;;;;1.90;1.80;;;21.20;64.00;;;;;;4996366;28;20249;-72
2023/07/27 09:49:18;;;;;;;2.03;1.45;;;21.20;64.00;;;;;;5010100;28;20213;-70
2023/07/27 09:51:46;;;;;;;1.85;1.63;;;21.10;63.90;;;;;;5009801;28;20191;-73
2023/07/27 09:54:13;;;;;;;2.17;1.60;;;21.20;64.00;;;;;;5001157;28;20192;-70
2023/07/27 09:56:39;;;;;;;1.75;1.65;;;21.20;64.00;;;;;;5006228;28;20247;-70
2023/07/27 09:59:07;;;;;;;1.75;1.52;;;21.20;64.00;;;;;;5012495;28;20274;-69
2023/07/27 10:01:33;;;;;;;1.90;1.80;;;21.10;64.00;;;;;;5013228;28;20187;-69
2023/07/27 10:03:59;;;;;;;2.45;1.52;;;21.10;64.00;;;;;;5011625;28;20191;-70
2023/07/27 10:06:30;;;;;;;1.48;1.38;;;21.20;64.10;;;;;;5003278;28;20204;-69
2023/07/27 10:08:56;;;;;;;3.08;1.52;;;21.20;64.20;;;;;;5007141;28;20687;-69
2023/07/27 10:11:57;;;;;;;2.17;1.70;;;21.20;64.10;;;;;;5013438;28;20180;-70
2023/07/27 10:14:28;;;;;;;1.83;1.73;;;21.10;64.00;;;;;;4996889;28;20250;-70
2023/07/27 10:17:08;;;;;;;1.90;1.75;;;21.10;64.00;;;;;;4996726;28;20244;-71
2023/07/27 10:19:43;;;;;;;1.60;1.50;;;21.20;64.20;;;;;;5008621;28;20272;-69
2023/07/27 10:22:14;;;;;;;2.17;1.50;;;21.20;64.20;;;;;;5012582;28;20188;-70
2023/07/27 10:24:52;;;;;;;2.10;1.90;;;21.20;64.90;;;;;;5000635;28;20218;-70
2023/07/27 10:27:20;;;;;;;1.58;1.48;;;21.20;64.10;;;;;;5003452;28;20277;-70
2023/07/27 10:29:51;;;;;;;1.70;1.60;;;21.20;64.30;;;;;;5000152;28;20180;-69
2023/07/27 10:32:17;;;;;;;2.22;1.85;;;21.20;64.40;;;;;;4989507;28;20211;-69
2023/07/27 10:34:43;;;;;;;1.83;1.65;;;21.20;64.40;;;;;;5017957;28;20215;-69
2023/07/27 10:37:12;;;;;;;1.73;1.63;;;21.20;64.40;;;;;;4984067;28;20227;-70
2023/07/27 10:39:51;;;;;;;1.60;1.50;;;21.20;64.30;;;;;;5002271;28;20576;-70
2023/07/27 10:42:23;;;;;;;1.80;1.67;;;21.20;64.60;;;;;;4991070;28;20214;-70
2023/07/27 10:44:58;;;;;;;1.98;1.60;;;21.10;64.50;;;;;;4972155;28;20246;-73
2023/07/27 10:47:33;;;;;;;2.25;1.52;;;21.20;64.40;;;;;;5005762;28;20212;-70
2023/07/27 10:50:00;;;;;;;1.52;1.42;;;21.20;64.50;;;;;;5010326;28;20243;-70
2023/07/27 10:52:32;;;;;;;2.00;1.80;;;21.20;64.50;;;;;;5012467;28;20226;-70
2023/07/27 10:54:59;;;;;;;1.88;1.77;;;21.20;64.50;;;;;;5003645;28;20262;-70
2023/07/27 10:57:32;;;;;;;1.80;1.70;;;21.20;64.40;;;;;;4996031;28;20246;-71
2023/07/27 10:59:58;;;;;;;1.85;1.70;;;21.20;64.50;;;;;;5010950;28;20227;-72
2023/07/27 11:02:32;;;;;;;1.80;1.60;;;21.20;64.50;;;;;;5000744;28;20236;-70
2023/07/27 11:05:02;;;;;;;1.48;1.38;;;21.20;64.70;;;;;;5005202;28;20251;-71
2023/07/27 11:07:31;;;;;;;2.90;1.75;;;21.20;64.60;;;;;;5011583;28;20233;-70
2023/07/27 11:09:59;;;;;;;1.95;1.67;;;21.20;64.70;;;;;;5009035;28;20212;-70
2023/07/27 11:12:25;;;;;;;1.70;1.60;;;21.20;64.80;;;;;;4989877;28;20234;-70
2023/07/27 11:14:52;;;;;;;1.85;1.75;;;21.20;64.70;;;;;;5015126;28;20611;-70
2023/07/27 11:17:19;;;;;;;2.65;2.00;;;21.20;64.90;;;;;;5014936;28;20187;-70
2023/07/27 11:19:47;;;;;;;1.60;1.50;;;21.20;64.70;;;;;;5015386;28;20207;-70
2023/07/27 11:22:12;;;;;;;1.60;1.40;;;21.20;64.70;;;;;;4994622;28;20273;-72
2023/07/27 11:24:39;;;;;;;1.70;1.60;;;21.20;64.90;;;;;;4995235;28;20239;-70
2023/07/27 11:27:10;;;;;;;1.80;1.70;;;21.20;64.80;;;;;;4999747;28;20648;-70
2023/07/27 11:29:40;;;;;;;1.70;1.60;;;21.20;64.70;;;;;;5010463;28;20227;-70
2023/07/27 11:32:06;;;;;;;3.00;1.60;;;21.20;64.70;;;;;;4972736;28;20192;-70
2023/07/27 11:34:35;;;;;;;2.47;1.70;;;21.20;64.70;;;;;;4989148;28;20212;-71
2023/07/27 11:37:01;;;;;;;2.03;1.70;;;21.20;64.90;;;;;;4983600;28;20275;-70
2023/07/27 11:39:27;;;;;;;4.15;1.73;;;21.30;64.90;;;;;;5021128;28;20184;-70
2023/07/27 11:41:53;;;;;;;1.70;1.60;;;21.30;64.90;;;;;;5012741;28;20188;-70
2023/07/27 11:44:21;;;;;;;1.98;1.63;;;21.30;64.80;;;;;;5008203;28;20200;-70
2023/07/27 11:46:51;;;;;;;2.58;2.03;;;21.30;64.80;;;;;;4999009;28;20191;-70
2023/07/27 11:49:22;;;;;;;2.58;1.83;;;21.30;65.00;;;;;;4995115;28;20196;-71
2023/07/27 11:51:49;;;;;;;2.03;1.85;;;21.30;65.00;;;;;;4994850;28;20188;-70
2023/07/27 11:54:27;;;;;;;2.03;1.70;;;21.30;65.20;;;;;;4986854;28;20208;-71
2023/07/27 11:56:56;;;;;;;2.35;1.80;;;21.30;65.10;;;;;;4986855;28;20195;-70
2023/07/27 11:59:22;;;;;;;2.67;1.98;;;21.30;65.20;;;;;;5008001;28;20199;-70
2023/07/27 12:01:50;;;;;;;2.10;1.90;;;21.30;65.20;;;;;;4975511;28;20230;-70
2023/07/27 12:04:20;;;;;;;2.85;1.90;;;21.30;65.20;;;;;;4993871;28;20217;-70
2023/07/27 12:06:47;;;;;;;2.22;2.03;;;21.30;65.30;;;;;;5010960;28;20199;-71
2023/07/27 12:09:14;;;;;;;4.05;2.08;;;21.30;65.30;;;;;;4994420;28;20580;-70
2023/07/27 12:11:40;;;;;;;4.80;2.13;;;21.30;65.30;;;;;;4991204;28;20195;-70
2023/07/27 12:14:10;;;;;;;2.33;2.00;;;21.30;65.30;;;;;;5008400;28;20188;-70
2023/07/27 12:16:42;;;;;;;2.35;1.90;;;21.30;65.20;;;;;;4986709;28;20188;-70
2023/07/27 12:19:08;;;;;;;3.10;1.90;;;21.30;65.10;;;;;;5021793;28;20211;-70
2023/07/27 12:21:36;;;;;;;2.58;1.95;;;21.30;65.20;;;;;;5010691;28;20279;-70
2023/07/27 12:24:11;;;;;;;1.95;1.73;;;21.30;65.10;;;;;;5007643;28;20199;-70
2023/07/27 12:26:37;;;;;;;2.85;2.17;;;21.30;65.30;;;;;;5002913;28;20184;-69
2023/07/27 12:29:04;;;;;;;2.20;2.00;;;21.30;65.30;;;;;;4962078;28;20192;-70
2023/07/27 12:31:31;;;;;;;2.38;1.88;;;21.30;65.30;;;;;;4978165;28;20184;-69
2023/07/27 12:33:56;;;;;;;2.72;1.65;;;21.30;65.30;;;;;;4962414;28;20656;-70
2023/07/27 12:36:22;;;;;;;1.98;1.77;;;21.30;65.40;;;;;;4985976;28;20227;-70
2023/07/27 12:38:48;;;;;;;2.55;1.77;;;21.30;65.50;;;;;;5007123;28;20204;-70
2023/07/27 12:41:14;;;;;;;2.58;2.10;;;21.30;65.50;;;;;;4976011;28;20683;-70
2023/07/27 12:43:40;;;;;;;3.10;1.95;;;21.30;65.60;;;;;;4993950;28;20192;-70
2023/07/27 12:46:06;;;;;;;2.10;1.90;;;21.30;65.50;;;;;;4977652;28;20238;-70
2023/07/27 12:48:32;;;;;;;2.25;1.73;;;21.30;65.50;;;;;;4993764;28;20287;-70
2023/07/27 12:50:58;;;;;;;2.35;2.15;;;21.30;65.60;;;;;;5011737;28;20616;-71